createdAt,value
2018-10-03T00:01:33.469Z,9.30
2018-10-03T00:04:01.551Z,12.70
2018-10-03T00:06:29.671Z,10.03
2018-10-03T00:08:57.779Z,12.70
2018-10-03T00:11:25.885Z,10.93
2018-10-03T00:13:53.988Z,13.17
2018-10-03T00:16:22.135Z,14.03
2018-10-03T00:18:50.240Z,13.27
2018-10-03T00:21:18.344Z,12.73
2018-10-03T00:23:46.452Z,12.73
2018-10-03T00:26:14.561Z,12.87
2018-10-03T00:28:42.636Z,12.03
2018-10-03T00:31:30.841Z,12.90
2018-10-03T00:33:58.918Z,12.33
2018-10-03T00:36:26.976Z,12.37
2018-10-03T00:38:55.032Z,12.90
2018-10-03T00:41:23.114Z,12.83
2018-10-03T00:43:51.165Z,13.47
2018-10-03T00:46:19.244Z,12.93
2018-10-03T00:48:47.315Z,11.83
2018-10-03T00:51:15.376Z,12.87
2018-10-03T00:53:43.449Z,13.30
2018-10-03T00:56:11.517Z,12.37
2018-10-03T00:58:39.634Z,10.10
2018-10-03T01:01:07.707Z,13.00
2018-10-03T01:03:35.793Z,10.30
2018-10-03T01:06:03.921Z,10.63
2018-10-03T01:08:32.004Z,10.90
2018-10-03T01:11:00.061Z,9.73
2018-10-03T01:13:28.145Z,9.87
2018-10-03T01:15:56.204Z,11.00
2018-10-03T01:18:24.248Z,11.40
2018-10-03T01:20:52.309Z,11.83
2018-10-03T01:23:20.350Z,9.03
2018-10-03T01:25:48.400Z,10.20
2018-10-03T01:28:16.456Z,8.73
2018-10-03T01:30:44.562Z,10.23
2018-10-03T01:33:12.605Z,9.50
2018-10-03T01:35:40.757Z,11.60
2018-10-03T01:38:08.798Z,9.13
2018-10-03T01:40:36.861Z,9.43
2018-10-03T01:43:04.919Z,8.37
2018-10-03T01:45:32.957Z,8.87
2018-10-03T01:48:01.022Z,9.23
2018-10-03T01:50:29.103Z,12.87
2018-10-03T01:52:57.156Z,9.97
2018-10-03T01:55:25.210Z,11.13
2018-10-03T01:57:53.277Z,8.57
2018-10-03T02:00:21.358Z,10.17
2018-10-03T02:02:49.476Z,10.33
2018-10-03T02:05:17.545Z,8.60
2018-10-03T02:07:45.610Z,8.87
2018-10-03T02:10:13.680Z,7.53
2018-10-03T02:12:41.741Z,9.00
2018-10-03T02:15:09.837Z,8.37
2018-10-03T02:17:37.893Z,8.47
2018-10-03T02:20:06.934Z,10.03
2018-10-03T02:22:34.960Z,7.10
2018-10-03T02:25:03.044Z,10.27
2018-10-03T02:27:31.113Z,8.00
2018-10-03T02:29:59.144Z,9.27
2018-10-03T02:32:27.197Z,8.83
2018-10-03T02:34:55.260Z,8.57
2018-10-03T02:37:23.405Z,10.50
2018-10-03T02:39:51.479Z,10.73
2018-10-03T02:42:19.550Z,8.13
2018-10-03T02:44:47.609Z,8.63
2018-10-03T02:47:15.680Z,12.60
2018-10-03T02:49:43.737Z,7.37
2018-10-03T02:52:11.793Z,8.60
2018-10-03T02:54:39.850Z,8.47
2018-10-03T02:57:07.929Z,16.77
2018-10-03T02:59:35.972Z,5.93
2018-10-03T03:02:04.028Z,10.37
2018-10-03T03:04:32.103Z,6.90
2018-10-03T03:07:00.152Z,10.20
2018-10-03T03:09:28.213Z,9.33
2018-10-03T03:11:56.288Z,7.87
2018-10-03T03:14:24.361Z,6.17
2018-10-03T03:16:52.433Z,7.07
2018-10-03T03:19:20.513Z,10.93
2018-10-03T03:21:48.639Z,7.03
2018-10-03T03:24:16.677Z,8.17
2018-10-03T03:26:44.746Z,8.57
2018-10-03T03:29:12.832Z,8.53
2018-10-03T03:31:40.896Z,9.77
2018-10-03T03:34:08.959Z,9.20
2018-10-03T03:36:37.004Z,10.17
2018-10-03T03:39:06.438Z,7.83
2018-10-03T03:41:34.544Z,10.67
2018-10-03T03:44:02.606Z,9.77
2018-10-03T03:46:30.674Z,11.33
2018-10-03T03:48:58.728Z,6.37
2018-10-03T03:51:26.785Z,9.63
2018-10-03T03:53:54.841Z,12.00
2018-10-03T03:56:22.892Z,8.00
2018-10-03T03:58:50.938Z,8.20
2018-10-03T04:01:18.994Z,10.03
2018-10-03T04:03:47.060Z,11.13
2018-10-03T04:06:15.169Z,9.73
2018-10-03T04:08:43.234Z,9.70
2018-10-03T04:11:11.302Z,11.03
2018-10-03T04:13:39.377Z,10.10
2018-10-03T04:16:07.454Z,11.03
2018-10-03T04:18:35.510Z,10.90
2018-10-03T04:21:03.604Z,7.83
2018-10-03T04:23:31.687Z,7.87
2018-10-03T04:25:59.737Z,9.87
2018-10-03T04:28:27.803Z,12.87
2018-10-03T04:30:55.841Z,11.50
2018-10-03T04:33:23.946Z,7.47
2018-10-03T04:35:51.993Z,11.33
2018-10-03T04:38:20.033Z,8.00
2018-10-03T04:40:48.101Z,10.33
2018-10-03T04:43:16.151Z,7.50
2018-10-03T04:45:44.219Z,12.37
2018-10-03T04:48:12.268Z,9.80
2018-10-03T04:50:40.315Z,9.00
2018-10-03T04:53:08.353Z,8.13
2018-10-03T04:55:36.417Z,12.10
2018-10-03T04:58:04.470Z,10.90
2018-10-03T05:00:32.548Z,10.10
2018-10-03T05:03:00.601Z,9.17
2018-10-03T05:05:28.660Z,8.27
2018-10-03T05:07:56.782Z,7.30
2018-10-03T05:10:24.896Z,6.43
2018-10-03T05:12:52.921Z,7.93
2018-10-03T05:15:20.981Z,8.47
2018-10-03T05:17:49.069Z,8.53
2018-10-03T05:20:17.165Z,10.53
2018-10-03T05:22:45.296Z,7.43
2018-10-03T05:25:13.410Z,10.00
2018-10-03T05:27:41.519Z,7.50
2018-10-03T05:30:09.560Z,8.33
2018-10-03T05:32:37.622Z,8.43
2018-10-03T05:35:05.865Z,9.93
2018-10-03T05:37:33.935Z,8.50
2018-10-03T05:40:02.029Z,11.97
2018-10-03T05:42:30.127Z,8.17
2018-10-03T05:44:58.225Z,9.53
2018-10-03T05:47:26.297Z,11.47
2018-10-03T05:49:54.404Z,8.73
2018-10-03T05:52:22.474Z,10.07
2018-10-03T05:54:50.670Z,12.20
2018-10-03T05:57:18.758Z,8.27
2018-10-03T05:59:46.805Z,8.73
2018-10-03T06:02:15.432Z,11.10
2018-10-03T06:04:43.482Z,10.73
2018-10-03T06:07:11.781Z,8.03
2018-10-03T06:09:39.841Z,8.67
2018-10-03T06:12:07.927Z,9.43
2018-10-03T06:14:35.980Z,9.43
2018-10-03T06:17:04.028Z,10.17
2018-10-03T06:19:32.194Z,8.20
2018-10-03T06:22:00.262Z,8.50
2018-10-03T06:24:28.308Z,9.43
2018-10-03T06:26:56.379Z,8.63
2018-10-03T06:29:24.544Z,8.67
2018-10-03T06:31:59.349Z,9.40
2018-10-03T06:34:27.453Z,10.07
2018-10-03T06:36:55.509Z,7.70
2018-10-03T06:39:23.602Z,10.63
2018-10-03T06:41:51.718Z,10.13
2018-10-03T06:44:19.829Z,11.50
2018-10-03T06:46:47.885Z,13.57
2018-10-03T06:49:15.921Z,10.70
2018-10-03T06:51:44.015Z,7.87
2018-10-03T06:54:12.072Z,8.70
2018-10-03T06:56:40.140Z,11.77
2018-10-03T06:59:08.280Z,9.87
2018-10-03T07:01:36.327Z,8.27
2018-10-03T07:04:04.436Z,9.87
2018-10-03T07:06:32.509Z,9.97
2018-10-03T07:09:01.328Z,11.43
2018-10-03T07:11:29.442Z,6.50
2018-10-03T07:13:57.485Z,9.90
2018-10-03T07:16:25.538Z,7.97
2018-10-03T07:18:53.589Z,14.60
2018-10-03T07:21:21.741Z,7.70
2018-10-03T07:23:49.908Z,9.77
2018-10-03T07:26:18.075Z,9.83
2018-10-03T07:28:46.032Z,9.63
2018-10-03T07:31:14.092Z,9.17
2018-10-03T07:33:42.180Z,9.93
2018-10-03T07:36:10.253Z,8.87
2018-10-03T07:38:38.294Z,8.50
2018-10-03T07:41:06.368Z,8.53
2018-10-03T07:43:34.425Z,8.83
2018-10-03T07:46:02.486Z,9.07
2018-10-03T07:48:30.562Z,10.73
2018-10-03T07:50:58.787Z,8.00
2018-10-03T07:53:26.890Z,8.67
2018-10-03T07:55:55.140Z,9.73
2018-10-03T07:58:23.262Z,8.50
2018-10-03T08:00:51.340Z,11.03
2018-10-03T08:03:19.418Z,10.67
2018-10-03T08:05:47.492Z,9.10
2018-10-03T08:08:15.553Z,10.17
2018-10-03T08:10:43.615Z,6.40
2018-10-03T08:13:12.584Z,8.63
2018-10-03T08:15:40.647Z,10.63
2018-10-03T08:18:08.732Z,9.00
2018-10-03T08:20:36.824Z,8.87
2018-10-03T08:23:05.012Z,10.23
2018-10-03T08:25:33.138Z,7.80
2018-10-03T08:28:01.198Z,11.07
2018-10-03T08:30:29.268Z,9.57
2018-10-03T08:32:57.399Z,11.17
2018-10-03T08:35:26.445Z,9.17
2018-10-03T08:37:54.485Z,10.17
2018-10-03T08:40:22.781Z,9.03
2018-10-03T08:42:51.378Z,10.07
2018-10-03T08:45:20.221Z,7.47
2018-10-03T08:47:48.304Z,10.43
2018-10-03T08:50:16.469Z,7.10
2018-10-03T08:52:44.779Z,9.83
2018-10-03T08:55:13.080Z,5.27
2018-10-03T08:57:41.794Z,7.37
2018-10-03T09:00:10.127Z,7.27
2018-10-03T09:02:38.289Z,11.33
2018-10-03T09:05:06.956Z,8.73
2018-10-03T09:07:36.170Z,6.77
2018-10-03T09:10:04.933Z,7.83
2018-10-03T09:12:34.005Z,5.53
2018-10-03T09:15:02.064Z,7.67
2018-10-03T09:17:30.171Z,8.63
2018-10-03T09:19:58.208Z,5.97
2018-10-03T09:22:29.176Z,4.93
2018-10-03T09:24:57.549Z,8.47
2018-10-03T09:27:25.642Z,6.93
2018-10-03T09:29:53.794Z,5.47
2018-10-03T09:32:21.846Z,9.10
2018-10-03T09:34:53.051Z,7.70
2018-10-03T09:37:21.116Z,5.70
2018-10-03T09:39:49.219Z,6.07
2018-10-03T09:42:17.308Z,6.43
2018-10-03T09:44:45.390Z,8.97
2018-10-03T09:47:13.440Z,7.73
2018-10-03T09:49:41.535Z,6.70
2018-10-03T09:52:09.604Z,6.20
2018-10-03T09:54:38.034Z,10.30
2018-10-03T09:57:06.234Z,7.97
2018-10-03T09:59:34.311Z,5.60
2018-10-03T10:02:02.383Z,5.47
2018-10-03T10:04:30.446Z,7.57
2018-10-03T10:06:58.498Z,6.10
2018-10-03T10:09:26.545Z,7.40
2018-10-03T10:11:54.596Z,6.37
2018-10-03T10:14:22.749Z,5.37
2018-10-03T10:16:50.850Z,7.33
2018-10-03T10:19:19.082Z,5.70
2018-10-03T10:21:47.124Z,9.30
2018-10-03T10:24:15.184Z,4.67
2018-10-03T10:26:44.281Z,6.00
2018-10-03T10:29:12.410Z,5.53
2018-10-03T10:31:40.588Z,7.13
2018-10-03T10:34:08.616Z,4.90
2018-10-03T10:36:36.720Z,6.60
2018-10-03T10:39:07.898Z,7.07
2018-10-03T10:41:36.204Z,9.57
2018-10-03T10:44:04.052Z,7.13
2018-10-03T10:46:32.141Z,7.43
2018-10-03T10:49:00.208Z,5.20
2018-10-03T10:51:28.271Z,8.13
2018-10-03T10:53:56.332Z,6.93
2018-10-03T10:56:24.427Z,4.43
2018-10-03T10:58:52.502Z,8.03
2018-10-03T11:01:20.568Z,5.20
2018-10-03T11:03:48.625Z,6.27
2018-10-03T11:06:16.758Z,7.50
2018-10-03T11:08:44.792Z,5.00
2018-10-03T11:11:12.870Z,3.30
2018-10-03T11:13:40.951Z,6.23
2018-10-03T11:16:09.001Z,3.80
2018-10-03T11:18:37.076Z,3.30
2018-10-03T11:21:11.955Z,4.83
2018-10-03T11:23:40.200Z,5.07
2018-10-03T11:26:08.157Z,4.80
2018-10-03T11:28:36.269Z,4.83
2018-10-03T11:31:04.345Z,3.97
2018-10-03T11:33:32.520Z,5.83
2018-10-03T11:36:01.901Z,5.47
2018-10-03T11:38:29.989Z,3.57
2018-10-03T11:40:59.378Z,8.00
2018-10-03T11:43:28.364Z,3.37
2018-10-03T11:45:56.414Z,4.63
2018-10-03T11:48:48.152Z,10.27
2018-10-03T11:51:16.281Z,6.83
2018-10-03T11:53:44.358Z,5.13
2018-10-03T11:56:15.809Z,4.90
2018-10-03T11:58:45.097Z,4.53
2018-10-03T12:01:13.266Z,3.63
2018-10-03T12:03:42.981Z,4.47
2018-10-03T12:06:14.585Z,3.70
2018-10-03T12:08:48.632Z,3.90
2018-10-03T12:11:16.774Z,4.47
2018-10-03T12:13:50.394Z,2.87
2018-10-03T12:16:32.579Z,3.87
2018-10-03T12:19:04.767Z,2.77
2018-10-03T12:21:32.844Z,2.40
2018-10-03T12:24:00.925Z,2.60
2018-10-03T12:26:29.020Z,3.27
2018-10-03T12:28:57.104Z,5.10
2018-10-03T12:31:25.174Z,4.63
2018-10-03T12:33:53.421Z,3.80
2018-10-03T12:36:21.650Z,3.13
2018-10-03T12:41:32.883Z,5.77
2018-10-03T12:44:01.109Z,3.80
2018-10-03T12:46:29.206Z,5.30
2018-10-03T12:48:57.605Z,3.30
2018-10-03T12:51:27.217Z,4.40
2018-10-03T12:53:55.674Z,3.13
2018-10-03T12:56:24.022Z,4.00
2018-10-03T12:58:52.459Z,5.40
2018-10-03T13:01:21.705Z,3.47
2018-10-03T13:03:49.739Z,3.93
2018-10-03T13:06:17.817Z,4.50
2018-10-03T13:08:45.897Z,3.30
2018-10-03T13:11:14.033Z,4.10
2018-10-03T13:13:42.167Z,3.63
2018-10-03T13:16:15.183Z,3.83
2018-10-03T13:18:43.310Z,4.73
2018-10-03T13:21:11.432Z,5.47
2018-10-03T13:23:39.593Z,5.53
2018-10-03T13:26:11.685Z,3.97
2018-10-03T13:28:39.881Z,4.23
2018-10-03T13:31:08.102Z,4.13
2018-10-03T13:33:36.309Z,5.83
2018-10-03T13:36:04.878Z,6.03
2018-10-03T13:38:32.978Z,7.17
2018-10-03T13:41:01.179Z,5.83
2018-10-03T13:43:29.238Z,6.03
2018-10-03T13:45:57.366Z,6.20
2018-10-03T13:48:25.518Z,4.30
2018-10-03T13:50:53.721Z,3.77
2018-10-03T13:53:24.574Z,5.00
2018-10-03T13:55:52.799Z,5.27
2018-10-03T13:58:20.902Z,4.17
2018-10-03T14:00:48.953Z,5.30
2018-10-03T14:03:17.037Z,4.77
2018-10-03T14:05:45.277Z,3.83
2018-10-03T14:08:13.463Z,5.50
2018-10-03T14:10:48.469Z,3.57
2018-10-03T14:13:16.635Z,4.73
2018-10-03T14:15:44.744Z,4.00
2018-10-03T14:18:12.830Z,4.53
2018-10-03T14:20:41.021Z,2.33
2018-10-03T14:23:09.253Z,2.40
2018-10-03T14:25:37.531Z,3.53
2018-10-03T14:28:05.629Z,2.60
2018-10-03T14:30:33.731Z,2.23
2018-10-03T14:33:02.026Z,2.77
2018-10-03T14:35:30.148Z,2.87
2018-10-03T14:37:58.362Z,3.30
2018-10-03T14:40:26.588Z,2.23
2018-10-03T14:42:55.045Z,4.63
2018-10-03T14:45:23.132Z,2.40
2018-10-03T14:47:51.250Z,3.17
2018-10-03T14:50:19.354Z,1.70
2018-10-03T14:52:47.492Z,4.53
2018-10-03T14:55:15.605Z,3.90
2018-10-03T14:57:43.719Z,2.20
2018-10-03T15:00:11.868Z,4.30
2018-10-03T15:02:40.137Z,3.43
2018-10-03T15:05:10.385Z,3.73
2018-10-03T15:07:38.506Z,2.90
2018-10-03T15:10:06.713Z,6.03
2018-10-03T15:12:34.885Z,3.80
2018-10-03T15:15:02.942Z,2.60
2018-10-03T15:17:31.395Z,3.60
2018-10-03T15:19:59.525Z,3.33
2018-10-03T15:22:27.604Z,2.27
2018-10-03T15:24:55.804Z,3.60
2018-10-03T15:27:24.961Z,3.60
2018-10-03T15:29:53.235Z,6.50
2018-10-03T15:32:21.345Z,3.63
2018-10-03T15:34:49.428Z,4.83
2018-10-03T15:37:17.492Z,3.67
2018-10-03T15:39:45.628Z,4.03
2018-10-03T15:42:13.817Z,3.90
2018-10-03T15:44:41.907Z,4.77
2018-10-03T15:47:10.034Z,3.37
2018-10-03T15:49:38.293Z,5.33
2018-10-03T15:52:06.445Z,3.17
2018-10-03T15:54:34.585Z,5.10
2018-10-03T15:57:02.685Z,4.30
2018-10-03T15:59:30.844Z,3.23
2018-10-03T16:01:58.972Z,4.60
2018-10-03T16:04:27.137Z,2.43
2018-10-03T16:08:04.919Z,3.17
2018-10-03T16:10:33.082Z,3.20
2018-10-03T16:13:01.210Z,7.10
2018-10-03T16:15:29.352Z,9.43
2018-10-03T16:17:57.504Z,3.17
2018-10-03T16:20:25.671Z,4.23
2018-10-03T16:22:53.794Z,3.37
2018-10-03T16:25:21.918Z,7.13
2018-10-03T16:27:49.986Z,4.43
2018-10-03T16:30:18.147Z,2.70
2018-10-03T16:32:46.294Z,4.50
2018-10-03T16:35:14.444Z,4.00
2018-10-03T16:37:42.715Z,5.27
2018-10-03T16:40:10.920Z,4.03
2018-10-03T16:42:39.011Z,3.60
2018-10-03T16:45:08.007Z,4.47
2018-10-03T16:47:36.125Z,4.37
2018-10-03T16:50:04.290Z,5.23
2018-10-03T16:52:32.414Z,5.13
2018-10-03T16:55:00.568Z,5.10
2018-10-03T16:57:28.745Z,4.37
2018-10-03T16:59:56.894Z,5.23
2018-10-03T17:02:24.966Z,6.70
2018-10-03T17:04:53.109Z,4.77
2018-10-03T17:07:21.237Z,5.37
2018-10-03T17:09:49.339Z,4.50
2018-10-03T17:12:17.402Z,3.40
2018-10-03T17:14:45.477Z,4.00
2018-10-03T17:17:13.738Z,6.07
2018-10-03T17:19:41.929Z,6.37
2018-10-03T17:22:10.175Z,4.67
2018-10-03T17:24:38.884Z,4.53
2018-10-03T17:27:07.086Z,7.33
2018-10-03T17:29:35.191Z,4.40
2018-10-03T17:32:03.565Z,4.23
2018-10-03T17:34:32.430Z,5.17
2018-10-03T17:37:00.693Z,4.77
2018-10-03T17:39:29.866Z,6.80
2018-10-03T17:41:58.349Z,4.80
2018-10-03T17:44:26.728Z,5.53
2018-10-03T17:46:56.092Z,6.10
2018-10-03T17:49:24.507Z,5.37
2018-10-03T17:51:54.526Z,4.97
2018-10-03T17:54:23.637Z,5.50
2018-10-03T17:56:51.834Z,4.73
2018-10-03T17:59:20.305Z,5.13
2018-10-03T18:01:50.649Z,6.55
2018-10-03T18:04:19.710Z,6.30
2018-10-03T18:06:48.680Z,4.30
2018-10-03T18:09:18.967Z,6.87
2018-10-03T18:11:47.968Z,7.73
2018-10-03T18:14:16.129Z,5.27
2018-10-03T18:16:46.226Z,4.17
2018-10-03T18:19:14.541Z,4.43
2018-10-03T18:21:42.758Z,5.47
2018-10-03T18:24:11.001Z,4.73
2018-10-03T18:26:39.921Z,4.47
2018-10-03T18:29:08.440Z,6.50
2018-10-03T18:31:37.337Z,5.03
2018-10-03T18:34:05.483Z,6.03
2018-10-03T18:36:33.821Z,4.40
2018-10-03T18:39:02.291Z,5.47
2018-10-03T18:41:30.523Z,5.77
2018-10-03T18:46:38.196Z,4.80
2018-10-03T18:49:06.413Z,2.97
2018-10-03T18:51:35.803Z,4.87
2018-10-03T18:54:04.143Z,4.47
2018-10-03T18:56:39.093Z,4.57
2018-10-03T18:59:07.297Z,3.13
2018-10-03T19:01:36.031Z,4.13
2018-10-03T19:04:05.301Z,3.53
2018-10-03T19:06:34.540Z,2.93
2018-10-03T19:09:04.955Z,2.00
2018-10-03T19:11:33.347Z,4.00
2018-10-03T19:14:01.518Z,2.67
2018-10-03T19:16:29.915Z,5.43
2018-10-03T19:18:58.104Z,3.30
2018-10-03T19:21:26.471Z,4.23
2018-10-03T19:23:54.567Z,5.07
2018-10-03T19:26:23.031Z,4.23
2018-10-03T19:28:51.129Z,10.07
2018-10-03T19:31:19.390Z,5.20
2018-10-03T19:33:47.501Z,3.03
2018-10-03T19:36:15.684Z,4.10
2018-10-03T19:38:43.891Z,3.77
2018-10-03T19:41:13.223Z,4.00
2018-10-03T19:43:41.341Z,4.10
2018-10-03T19:46:09.446Z,4.23
2018-10-03T19:48:37.610Z,4.20
2018-10-03T19:51:05.718Z,3.60
2018-10-03T19:53:35.420Z,3.83
2018-10-03T19:56:05.013Z,3.97
2018-10-03T19:58:33.380Z,4.67
2018-10-03T20:01:01.705Z,2.63
2018-10-03T20:03:29.859Z,4.00
2018-10-03T20:05:57.920Z,4.03
2018-10-03T20:08:26.096Z,3.03
2018-10-03T20:10:54.158Z,4.07
2018-10-03T20:13:22.419Z,3.77
2018-10-03T20:15:50.973Z,4.97
2018-10-03T20:18:19.061Z,3.70
2018-10-03T20:20:47.168Z,4.83
2018-10-03T20:23:15.325Z,5.37
2018-10-03T20:25:44.451Z,5.20
2018-10-03T20:28:12.529Z,5.83
2018-10-03T20:30:40.678Z,2.50
2018-10-03T20:33:08.718Z,3.00
2018-10-03T20:35:36.778Z,3.13
2018-10-03T20:38:04.989Z,1.80
2018-10-03T20:40:33.100Z,3.17
2018-10-03T20:43:01.177Z,4.33
2018-10-03T20:45:29.263Z,3.07
2018-10-03T20:47:57.325Z,4.40
2018-10-03T20:50:25.374Z,2.93
2018-10-03T20:52:53.616Z,3.73
2018-10-03T20:55:21.725Z,2.37
2018-10-03T20:57:49.784Z,4.37
2018-10-03T21:00:17.888Z,3.50
2018-10-03T21:02:46.140Z,3.40
2018-10-03T21:05:14.282Z,3.93
2018-10-03T21:07:42.339Z,2.67
2018-10-03T21:10:10.502Z,2.63
2018-10-03T21:12:38.546Z,3.60
2018-10-03T21:15:06.768Z,3.07
2018-10-03T21:17:34.822Z,4.40
2018-10-03T21:20:02.881Z,5.93
2018-10-03T21:22:31.048Z,2.27
2018-10-03T21:24:59.260Z,4.13
2018-10-03T21:27:27.504Z,3.93
2018-10-03T21:29:55.568Z,4.37
2018-10-03T21:32:23.640Z,4.57
2018-10-03T21:34:51.697Z,4.80
2018-10-03T21:37:19.772Z,2.80
2018-10-03T21:39:47.835Z,5.60
2018-10-03T21:42:15.904Z,4.17
2018-10-03T21:44:44.006Z,5.10
2018-10-03T21:47:12.097Z,5.93
2018-10-03T21:49:41.190Z,3.60
2018-10-03T21:52:09.332Z,7.03
2018-10-03T21:54:37.429Z,6.03
2018-10-03T21:57:05.686Z,3.43
2018-10-03T21:59:33.873Z,3.17
2018-10-03T22:02:01.965Z,3.37
2018-10-03T22:04:30.026Z,6.23
2018-10-03T22:06:58.569Z,5.50
2018-10-03T22:09:26.729Z,4.20
2018-10-03T22:11:54.816Z,4.83
2018-10-03T22:14:22.901Z,4.90
2018-10-03T22:16:51.014Z,4.53
2018-10-03T22:19:19.134Z,5.30
2018-10-03T22:21:47.225Z,3.90
2018-10-03T22:24:15.365Z,3.90
2018-10-03T22:26:43.439Z,2.93
2018-10-03T22:29:11.496Z,6.83
2018-10-03T22:31:39.594Z,3.03
2018-10-03T22:34:07.636Z,3.53
2018-10-03T22:36:35.847Z,3.20
2018-10-03T22:39:04.950Z,6.67
2018-10-03T22:41:33.037Z,4.27
2018-10-03T22:44:01.106Z,5.43
2018-10-03T22:46:29.205Z,4.73
2018-10-03T22:48:57.269Z,5.73
2018-10-03T22:51:25.328Z,3.90
2018-10-03T22:53:53.421Z,4.50
2018-10-03T22:56:21.503Z,4.03
2018-10-03T22:58:49.536Z,5.63
2018-10-03T23:01:17.658Z,4.70
2018-10-03T23:03:45.691Z,5.47
2018-10-03T23:06:13.781Z,3.10
2018-10-03T23:08:41.877Z,5.53
2018-10-03T23:11:09.926Z,4.77
2018-10-03T23:13:38.028Z,4.50
2018-10-03T23:16:06.128Z,4.67
2018-10-03T23:18:34.212Z,5.07
2018-10-03T23:21:02.284Z,5.20
2018-10-03T23:23:30.389Z,5.90
2018-10-03T23:25:59.306Z,6.23
2018-10-03T23:28:27.345Z,7.77
2018-10-03T23:30:55.433Z,5.40
2018-10-03T23:33:23.538Z,4.83
2018-10-03T23:35:51.613Z,6.80
2018-10-03T23:38:19.694Z,6.23
2018-10-03T23:40:47.772Z,4.60
2018-10-03T23:43:15.916Z,4.93
2018-10-03T23:45:44.021Z,4.63
2018-10-03T23:48:12.113Z,5.73
2018-10-03T23:50:40.219Z,7.13
2018-10-03T23:53:08.251Z,5.43
2018-10-03T23:55:36.368Z,6.60
2018-10-03T23:58:04.448Z,4.33
